EmailTwitter


Observations de surface / Europe / LIRF (16242)

Régions: Québec | Canada | États-Unis | Europe | France | UK | Ailleurs
Station
Affichage
Infos & localisation pour LIRF (16242) | Aide pour décoder les METARs

Observations prises le 2018-09-21 à 04H20 UTC (LIRF)

Etat du ciel: quelques nuages.

Température: 20.0 Celsius

Point de rosée: 19.0 Celsius

Humidité relative: 94%

Indice Humidex: 27.

Vents: Nord-est à 6 km/h ou 3 noeuds.

Pression au niveau moyen de la mer: 101.40 kilopascals.

Visibilité horizontale: 6.21 milles terrestres ou 9.94 kilomètres.

Observation METAR:

LIRF 210420Z 05003KT 9999 FEW050 20/19 Q1014 NOSIG=